createdAt,value
2023-04-25T00:02:27.407Z,41.95
2023-04-25T00:05:00.949Z,43.00
2023-04-25T00:07:30.937Z,40.22
2023-04-25T00:10:01.469Z,42.25
2023-04-25T00:12:31.420Z,38.05
2023-04-25T00:15:02.442Z,42.15
2023-04-25T00:17:33.745Z,40.72
2023-04-25T00:20:07.402Z,37.45
2023-04-25T00:22:39.600Z,37.03
2023-04-25T00:25:10.200Z,37.90
2023-04-25T00:27:41.697Z,39.30
2023-04-25T00:30:12.328Z,36.67
2023-04-25T00:32:42.151Z,37.63
2023-04-25T00:35:12.873Z,36.67
2023-04-25T00:37:44.476Z,40.08
2023-04-25T00:40:14.629Z,42.17
2023-04-25T00:42:45.135Z,44.65
2023-04-25T00:45:18.170Z,40.05
2023-04-25T00:47:48.703Z,38.67
2023-04-25T00:50:19.291Z,37.88
2023-04-25T00:52:49.585Z,35.35
2023-04-25T00:55:19.757Z,38.60
2023-04-25T00:57:49.422Z,36.80
2023-04-25T01:00:20.511Z,31.98
2023-04-25T01:02:51.280Z,29.67
2023-04-25T01:05:22.418Z,30.88
2023-04-25T01:07:53.227Z,33.85
2023-04-25T01:10:22.984Z,30.40
2023-04-25T01:12:53.167Z,27.55
2023-04-25T01:15:22.902Z,27.60
2023-04-25T01:17:52.985Z,26.65
2023-04-25T01:20:29.443Z,25.70
2023-04-25T01:23:00.294Z,24.23
2023-04-25T01:25:30.180Z,22.50
2023-04-25T01:28:01.419Z,23.90
2023-04-25T01:30:32.590Z,22.80
2023-04-25T01:33:03.339Z,21.73
2023-04-25T01:35:33.910Z,20.45
2023-04-25T01:38:04.756Z,22.13
2023-04-25T01:40:37.128Z,22.08
2023-04-25T01:43:07.381Z,21.08
2023-04-25T01:45:38.975Z,21.15
2023-04-25T01:48:10.457Z,22.35
2023-04-25T01:50:42.038Z,21.90
2023-04-25T01:53:16.971Z,21.85
2023-04-25T01:55:48.373Z,21.48
2023-04-25T01:58:21.926Z,21.58
2023-04-25T02:01:11.430Z,22.38
2023-04-25T02:03:51.575Z,22.08
2023-04-25T02:06:34.712Z,21.23
2023-04-25T02:09:05.009Z,21.38
2023-04-25T02:11:38.038Z,21.08
2023-04-25T02:14:27.903Z,20.48
2023-04-25T02:17:18.481Z,20.23
2023-04-25T02:19:52.911Z,27.83
2023-04-25T02:22:22.794Z,21.70
2023-04-25T02:24:53.216Z,22.17
2023-04-25T02:27:23.783Z,21.00
2023-04-25T02:29:53.482Z,20.80
2023-04-25T02:32:23.344Z,19.90
2023-04-25T02:34:53.006Z,19.75
2023-04-25T02:37:23.102Z,20.40
2023-04-25T02:39:52.897Z,20.80
2023-04-25T02:42:22.788Z,24.45
2023-04-25T02:44:53.176Z,20.95
2023-04-25T02:47:24.030Z,20.35
2023-04-25T02:49:53.941Z,20.67
2023-04-25T02:52:23.717Z,20.30
2023-04-25T02:55:01.346Z,20.17
2023-04-25T02:57:32.291Z,18.25
2023-04-25T03:00:01.974Z,20.98
2023-04-25T03:02:32.064Z,19.83
2023-04-25T03:05:01.783Z,19.67
2023-04-25T03:07:31.903Z,20.23
2023-04-25T03:10:04.699Z,20.35
2023-04-25T03:12:36.319Z,20.85
2023-04-25T03:15:07.902Z,20.27
2023-04-25T03:17:39.086Z,20.42
2023-04-25T03:20:10.779Z,20.13
2023-04-25T03:22:40.877Z,20.35
2023-04-25T03:25:11.029Z,17.75
2023-04-25T03:27:40.881Z,16.20
2023-04-25T03:30:11.107Z,18.08
2023-04-25T03:32:42.276Z,16.73
2023-04-25T03:35:12.417Z,18.60
2023-04-25T03:37:43.037Z,17.52
2023-04-25T03:40:14.434Z,17.80
2023-04-25T03:43:03.892Z,17.40
2023-04-25T03:45:34.391Z,18.00
2023-04-25T03:48:04.505Z,18.33
2023-04-25T03:50:34.344Z,18.83
2023-04-25T03:53:04.474Z,19.58
2023-04-25T03:55:46.252Z,17.35
2023-04-25T03:58:16.401Z,17.88
2023-04-25T04:00:46.140Z,18.15
2023-04-25T04:03:16.256Z,18.45
2023-04-25T04:05:47.778Z,17.80
2023-04-25T04:08:17.737Z,18.92
2023-04-25T04:10:47.719Z,17.48
2023-04-25T04:13:17.874Z,18.85
2023-04-25T04:15:51.264Z,16.52
2023-04-25T04:18:21.637Z,19.15
2023-04-25T04:20:51.401Z,18.25
2023-04-25T04:23:22.403Z,18.80
2023-04-25T04:25:52.551Z,19.38
2023-04-25T04:28:41.886Z,20.02
2023-04-25T04:31:22.069Z,20.35
2023-04-25T04:33:52.562Z,18.77
2023-04-25T04:36:25.430Z,18.02
2023-04-25T04:38:59.057Z,18.58
2023-04-25T04:41:39.268Z,19.17
2023-04-25T04:44:28.923Z,18.85
2023-04-25T04:47:18.610Z,18.45
2023-04-25T04:50:12.278Z,19.13
2023-04-25T04:53:02.584Z,19.45
2023-04-25T04:55:52.272Z,19.58
2023-04-25T04:58:33.472Z,18.80
2023-04-25T05:01:18.474Z,20.10
2023-04-25T05:04:08.829Z,19.92
2023-04-25T05:06:58.469Z,19.52
2023-04-25T05:09:48.273Z,19.55
2023-04-25T05:12:37.196Z,20.33
2023-04-25T05:15:30.284Z,21.75
2023-04-25T05:18:22.424Z,20.67
2023-04-25T05:21:09.331Z,20.15
2023-04-25T05:23:58.927Z,20.50
2023-04-25T05:26:48.526Z,18.92
2023-04-25T05:29:30.963Z,19.92
2023-04-25T05:32:18.112Z,19.88
2023-04-25T05:34:50.171Z,20.15
2023-04-25T05:37:26.525Z,19.85
2023-04-25T05:39:59.725Z,19.75
2023-04-25T05:42:49.395Z,21.27
2023-04-25T05:45:31.776Z,20.27
2023-04-25T05:48:21.477Z,20.05
2023-04-25T05:51:01.211Z,32.63
2023-04-25T05:53:51.401Z,34.70
2023-04-25T05:56:22.007Z,34.80
2023-04-25T05:58:55.177Z,19.73
2023-04-25T06:01:26.146Z,20.25
2023-04-25T06:03:56.222Z,18.95
2023-04-25T06:06:28.607Z,19.73
2023-04-25T06:08:58.969Z,20.27
2023-04-25T06:11:28.682Z,19.77
2023-04-25T06:13:58.745Z,20.70
2023-04-25T06:16:29.028Z,19.75
2023-04-25T06:18:59.586Z,19.92
2023-04-25T06:21:30.846Z,20.27
2023-04-25T06:24:02.769Z,19.70
2023-04-25T06:26:33.086Z,20.85
2023-04-25T06:29:02.775Z,20.35
2023-04-25T06:31:35.407Z,21.00
2023-04-25T06:34:05.431Z,18.20
2023-04-25T06:36:39.336Z,19.58
2023-04-25T06:39:12.344Z,20.92
2023-04-25T06:41:42.689Z,20.00
2023-04-25T06:44:32.454Z,19.75
2023-04-25T06:47:05.685Z,20.00
2023-04-25T06:49:36.087Z,18.75
2023-04-25T06:52:09.263Z,20.95
2023-04-25T06:54:39.497Z,19.67
2023-04-25T06:57:22.096Z,19.45
2023-04-25T06:59:52.613Z,20.13
2023-04-25T07:02:24.308Z,19.92
2023-04-25T07:04:58.630Z,20.50
2023-04-25T07:07:29.274Z,20.55
2023-04-25T07:10:01.301Z,19.38
2023-04-25T07:12:31.887Z,18.75
2023-04-25T07:15:02.001Z,20.90
2023-04-25T07:17:32.645Z,20.10
2023-04-25T07:20:03.230Z,19.95
2023-04-25T07:22:33.800Z,20.88
2023-04-25T07:25:04.451Z,21.55
2023-04-25T07:27:35.881Z,21.88
2023-04-25T07:30:14.834Z,19.35
2023-04-25T07:32:44.942Z,21.00
2023-04-25T07:35:14.892Z,20.17
2023-04-25T07:37:45.310Z,20.80
2023-04-25T07:40:21.512Z,20.15
2023-04-25T07:42:56.181Z,20.13
2023-04-25T07:45:37.788Z,21.17
2023-04-25T07:48:08.774Z,20.95
2023-04-25T07:50:41.150Z,20.23
2023-04-25T07:53:11.392Z,19.80
2023-04-25T07:55:48.327Z,19.52
2023-04-25T07:58:23.855Z,20.88
2023-04-25T08:00:59.361Z,19.30
2023-04-25T08:03:48.614Z,20.65
2023-04-25T08:06:25.336Z,21.17
2023-04-25T08:09:11.863Z,20.35
2023-04-25T08:11:45.316Z,20.92
2023-04-25T08:14:18.532Z,22.00
2023-04-25T08:16:48.847Z,20.55
2023-04-25T08:19:19.178Z,21.63
2023-04-25T08:21:50.016Z,20.77
2023-04-25T08:24:29.679Z,21.48
2023-04-25T08:27:01.389Z,21.23
2023-04-25T08:29:32.063Z,22.02
2023-04-25T08:32:01.811Z,27.02
2023-04-25T08:34:33.238Z,21.17
2023-04-25T08:37:07.198Z,21.20
2023-04-25T08:39:44.585Z,21.83
2023-04-25T08:42:36.782Z,22.25
2023-04-25T08:45:09.496Z,22.48
2023-04-25T08:47:43.935Z,20.73
2023-04-25T08:50:14.135Z,22.17
2023-04-25T08:52:51.994Z,22.50
2023-04-25T08:55:23.271Z,22.63
2023-04-25T08:57:59.016Z,22.73
2023-04-25T09:00:29.702Z,21.05
2023-04-25T09:03:01.537Z,21.10
2023-04-25T09:05:36.785Z,22.00
2023-04-25T09:08:06.751Z,21.40
2023-04-25T09:10:37.522Z,22.38
2023-04-25T09:13:15.495Z,22.23
2023-04-25T09:16:05.335Z,22.70
2023-04-25T09:18:55.184Z,23.05
2023-04-25T09:21:25.910Z,31.98
2023-04-25T09:23:56.877Z,33.42
2023-04-25T09:26:28.752Z,22.88
2023-04-25T09:29:10.233Z,22.80
2023-04-25T09:31:43.855Z,22.35
2023-04-25T09:34:18.234Z,22.73
2023-04-25T09:36:57.897Z,24.63
2023-04-25T09:39:49.881Z,25.00
2023-04-25T09:42:20.196Z,24.50
2023-04-25T09:44:53.349Z,24.30
2023-04-25T09:47:26.169Z,24.75
2023-04-25T09:49:57.893Z,23.92
2023-04-25T09:52:28.724Z,25.30
2023-04-25T09:55:07.005Z,24.52
2023-04-25T09:57:42.360Z,24.40
2023-04-25T10:00:15.400Z,23.63
2023-04-25T10:02:50.763Z,23.95
2023-04-25T10:05:41.183Z,22.95
2023-04-25T10:08:12.578Z,23.02
2023-04-25T10:10:44.279Z,22.88
2023-04-25T10:13:17.080Z,22.98
2023-04-25T10:15:48.087Z,23.95
2023-04-25T10:18:20.870Z,24.60
2023-04-25T10:20:51.849Z,24.77
2023-04-25T10:23:23.618Z,25.05
2023-04-25T10:25:58.321Z,23.33
2023-04-25T10:28:28.716Z,25.90
2023-04-25T10:31:07.084Z,25.63
2023-04-25T10:33:43.416Z,27.50
2023-04-25T10:36:24.959Z,26.52
2023-04-25T10:38:55.524Z,28.48
2023-04-25T10:41:25.503Z,26.70
2023-04-25T10:44:06.942Z,27.02
2023-04-25T10:46:38.481Z,24.83
2023-04-25T10:49:12.068Z,26.33
2023-04-25T10:51:55.073Z,25.45
2023-04-25T10:54:28.139Z,26.10
2023-04-25T10:57:01.311Z,25.50
2023-04-25T10:59:31.511Z,26.42
2023-04-25T11:02:01.262Z,25.88
2023-04-25T11:04:37.438Z,25.58
2023-04-25T11:07:52.822Z,26.67
2023-04-25T11:10:34.641Z,26.30
2023-04-25T11:13:04.689Z,26.02
2023-04-25T11:15:34.460Z,26.95
2023-04-25T11:18:04.665Z,27.13
2023-04-25T11:20:34.393Z,26.60
2023-04-25T11:25:41.016Z,31.35
2023-04-25T11:28:10.941Z,27.27
2023-04-25T11:30:40.622Z,27.65
2023-04-25T11:33:12.393Z,27.13
2023-04-25T11:35:44.231Z,27.60
2023-04-25T11:38:14.363Z,27.38
2023-04-25T11:40:45.870Z,26.75
2023-04-25T11:43:16.390Z,27.10
2023-04-25T11:45:51.506Z,28.52
2023-04-25T11:48:25.992Z,27.75
2023-04-25T11:51:00.347Z,27.85
2023-04-25T11:53:30.867Z,28.55
2023-04-25T11:56:00.714Z,29.10
2023-04-25T11:58:30.777Z,33.63
2023-04-25T12:01:05.539Z,35.78
2023-04-25T12:03:35.844Z,32.38
2023-04-25T12:06:09.173Z,33.13
2023-04-25T12:08:39.692Z,35.78
2023-04-25T12:11:24.510Z,38.42
2023-04-25T12:13:57.681Z,40.40
2023-04-25T12:16:28.236Z,36.72
2023-04-25T12:19:00.273Z,36.20
2023-04-25T12:21:32.290Z,35.58
2023-04-25T12:24:29.534Z,36.65
2023-04-25T12:27:08.777Z,87.97
2023-04-25T12:29:49.257Z,62.28
2023-04-25T12:32:20.355Z,40.67
2023-04-25T12:34:50.191Z,48.83
2023-04-25T12:37:20.145Z,63.63
2023-04-25T12:39:49.923Z,66.93
2023-04-25T12:42:20.017Z,65.43
2023-04-25T12:44:49.843Z,56.90
2023-04-25T12:47:19.745Z,50.13
2023-04-25T12:49:49.569Z,47.45
2023-04-25T12:52:19.747Z,44.70
2023-04-25T12:54:49.413Z,42.20
2023-04-25T12:57:22.954Z,44.22
2023-04-25T12:59:53.461Z,45.53
2023-04-25T13:02:23.849Z,48.03
2023-04-25T13:04:54.048Z,55.58
2023-04-25T13:07:23.933Z,53.08
2023-04-25T13:09:53.636Z,56.20
2023-04-25T13:12:23.621Z,57.05
2023-04-25T13:14:53.393Z,52.45
2023-04-25T13:17:23.347Z,52.95
2023-04-25T13:19:53.121Z,50.95
2023-04-25T13:22:23.010Z,56.25
2023-04-25T13:24:52.802Z,69.03
2023-04-25T13:27:22.879Z,68.30
2023-04-25T13:29:54.293Z,66.32
2023-04-25T13:32:25.758Z,60.33
2023-04-25T13:34:56.562Z,59.63
2023-04-25T13:37:26.677Z,58.40
2023-04-25T13:39:58.593Z,66.60
2023-04-25T13:42:28.756Z,61.33
2023-04-25T13:44:58.472Z,55.20
2023-04-25T13:47:29.733Z,56.72
2023-04-25T13:49:59.928Z,52.70
2023-04-25T13:52:29.764Z,53.35
2023-04-25T13:54:59.956Z,56.33
2023-04-25T13:57:29.705Z,58.35
2023-04-25T13:59:59.869Z,62.35
2023-04-25T14:02:29.693Z,60.25
2023-04-25T14:04:59.666Z,54.90
2023-04-25T14:07:29.943Z,48.03
2023-04-25T14:10:00.376Z,43.65
2023-04-25T14:12:30.186Z,46.13
2023-04-25T14:14:59.956Z,46.03
2023-04-25T14:17:30.344Z,43.78
2023-04-25T14:20:00.286Z,41.33
2023-04-25T14:22:29.920Z,42.38
2023-04-25T14:25:00.521Z,45.97
2023-04-25T14:27:30.443Z,44.40
2023-04-25T14:30:00.164Z,46.13
2023-04-25T14:32:30.259Z,44.03
2023-04-25T14:34:59.860Z,41.78
2023-04-25T14:37:29.711Z,41.92
2023-04-25T14:39:59.344Z,41.72
2023-04-25T14:42:29.202Z,42.53
2023-04-25T14:44:58.943Z,43.30
2023-04-25T14:47:28.884Z,45.78
2023-04-25T14:49:58.670Z,48.00
2023-04-25T14:52:28.694Z,47.63
2023-04-25T14:54:58.657Z,47.03
2023-04-25T14:57:28.652Z,47.33
2023-04-25T14:59:58.295Z,44.78
2023-04-25T15:02:29.153Z,47.08
2023-04-25T15:04:59.031Z,46.97
2023-04-25T15:07:29.186Z,49.03
2023-04-25T15:09:59.145Z,50.33
2023-04-25T15:12:30.759Z,52.83
2023-04-25T15:15:00.882Z,222.77
2023-04-25T15:17:33.324Z,57.15
2023-04-25T15:20:03.600Z,50.30
2023-04-25T15:22:33.271Z,51.67
2023-04-25T15:25:03.289Z,53.45
2023-04-25T15:27:33.222Z,57.08
2023-04-25T15:30:03.313Z,51.65
2023-04-25T15:32:32.997Z,55.78
2023-04-25T15:35:08.798Z,54.53
2023-04-25T15:37:39.459Z,55.00
2023-04-25T15:40:13.890Z,51.47
2023-04-25T15:42:56.552Z,52.08
2023-04-25T15:45:31.146Z,52.08
2023-04-25T15:48:01.400Z,52.42
2023-04-25T15:50:31.100Z,50.15
2023-04-25T15:53:02.201Z,46.05
2023-04-25T15:55:32.409Z,48.72
2023-04-25T15:58:02.378Z,52.22
2023-04-25T16:00:32.915Z,58.90
2023-04-25T16:03:02.749Z,56.55
2023-04-25T16:05:33.141Z,49.00
2023-04-25T16:08:02.945Z,47.28
2023-04-25T16:10:33.080Z,45.47
2023-04-25T16:13:02.878Z,43.78
2023-04-25T16:15:35.523Z,44.30
2023-04-25T16:18:06.079Z,42.15
2023-04-25T16:20:36.063Z,43.50
2023-04-25T16:23:06.159Z,43.85
2023-04-25T16:25:35.793Z,44.75
2023-04-25T16:28:05.866Z,43.88
2023-04-25T16:30:35.667Z,44.72
2023-04-25T16:33:05.821Z,42.88
2023-04-25T16:35:36.418Z,41.92
2023-04-25T16:38:06.856Z,42.25
2023-04-25T16:40:36.640Z,39.55
2023-04-25T16:43:06.732Z,39.33
2023-04-25T16:45:36.482Z,39.10
2023-04-25T16:48:06.453Z,37.70
2023-04-25T16:50:36.181Z,36.55
2023-04-25T16:53:07.115Z,35.53
2023-04-25T16:55:37.742Z,33.65
2023-04-25T16:58:09.917Z,53.15
2023-04-25T17:00:41.385Z,33.15
2023-04-25T17:03:11.793Z,32.25
2023-04-25T17:05:42.230Z,31.73
2023-04-25T17:08:12.402Z,30.25
2023-04-25T17:10:42.083Z,30.70
2023-04-25T17:13:12.348Z,30.10
2023-04-25T17:15:42.404Z,28.45
2023-04-25T17:18:13.939Z,27.85
2023-04-25T17:20:43.893Z,26.20
2023-04-25T17:23:14.220Z,26.05
2023-04-25T17:25:44.290Z,26.20
2023-04-25T17:28:14.508Z,24.67
2023-04-25T17:30:44.407Z,23.80
2023-04-25T17:33:14.127Z,23.45
2023-04-25T17:35:44.255Z,22.85
2023-04-25T17:38:15.276Z,22.13
2023-04-25T17:40:45.332Z,23.23
2023-04-25T17:43:15.043Z,22.65
2023-04-25T17:45:44.904Z,22.48
2023-04-25T17:48:14.562Z,22.60
2023-04-25T17:50:44.452Z,21.35
2023-04-25T17:53:14.613Z,21.65
2023-04-25T17:55:45.303Z,22.88
2023-04-25T17:58:14.996Z,192.27
2023-04-25T18:00:46.325Z,23.30
2023-04-25T18:03:16.282Z,21.48
2023-04-25T18:05:46.596Z,21.77
2023-04-25T18:08:16.567Z,22.42
2023-04-25T18:10:46.877Z,22.92
2023-04-25T18:13:16.644Z,21.88
2023-04-25T18:15:47.054Z,22.67
2023-04-25T18:18:21.329Z,21.30
2023-04-25T18:20:51.381Z,22.42
2023-04-25T18:23:21.938Z,20.95
2023-04-25T18:25:53.428Z,22.58
2023-04-25T18:28:23.746Z,22.75
2023-04-25T18:30:53.430Z,22.27
2023-04-25T18:33:24.006Z,22.30
2023-04-25T18:38:34.807Z,21.17
2023-04-25T18:41:18.417Z,19.55
2023-04-25T18:43:52.296Z,20.13
2023-04-25T18:46:24.287Z,20.80
2023-04-25T18:48:55.392Z,20.40
2023-04-25T18:51:32.827Z,28.13
2023-04-25T18:54:03.759Z,19.85
2023-04-25T18:56:34.538Z,19.10
2023-04-25T18:59:04.606Z,20.10
2023-04-25T19:01:35.456Z,23.15
2023-04-25T19:04:06.749Z,18.15
2023-04-25T19:06:37.738Z,17.48
2023-04-25T19:09:09.173Z,20.38
2023-04-25T19:11:39.725Z,19.70
2023-04-25T19:14:09.468Z,20.65
2023-04-25T19:16:43.220Z,19.90
2023-04-25T19:19:13.086Z,20.98
2023-04-25T19:21:43.313Z,20.15
2023-04-25T19:24:13.447Z,20.15
2023-04-25T19:26:43.467Z,20.60
2023-04-25T19:29:15.963Z,20.17
2023-04-25T19:31:47.168Z,20.27
2023-04-25T19:34:17.702Z,19.98
2023-04-25T19:36:47.811Z,20.20
2023-04-25T19:39:17.527Z,19.45
2023-04-25T19:41:47.763Z,19.73
2023-04-25T19:44:17.566Z,19.00
2023-04-25T19:46:48.181Z,20.42
2023-04-25T19:49:18.267Z,19.42
2023-04-25T19:51:48.361Z,20.13
2023-04-25T19:54:18.835Z,19.40
2023-04-25T19:56:48.741Z,21.23
2023-04-25T19:59:18.480Z,19.73
2023-04-25T20:01:48.338Z,19.83
2023-04-25T20:04:19.675Z,19.15
2023-04-25T20:06:49.736Z,20.15
2023-04-25T20:09:22.306Z,20.13
2023-04-25T20:11:52.518Z,20.00
2023-04-25T20:14:23.311Z,20.17
2023-04-25T20:16:53.683Z,19.58
2023-04-25T20:19:23.371Z,20.38
2023-04-25T20:21:53.504Z,20.08
2023-04-25T20:24:23.203Z,18.70
2023-04-25T20:26:53.276Z,19.08
2023-04-25T20:29:23.017Z,20.17
2023-04-25T20:31:53.274Z,20.00
2023-04-25T20:34:24.270Z,19.20
2023-04-25T20:36:54.465Z,20.65
2023-04-25T20:39:24.262Z,19.90
2023-04-25T20:41:54.396Z,20.38
2023-04-25T20:44:24.981Z,19.75
2023-04-25T20:46:55.132Z,20.30
2023-04-25T20:49:24.867Z,19.88
2023-04-25T20:51:54.695Z,17.75
2023-04-25T20:54:25.659Z,19.02
2023-04-25T20:56:55.737Z,18.35
2023-04-25T20:59:26.864Z,18.38
2023-04-25T21:01:57.361Z,16.70
2023-04-25T21:04:27.772Z,18.13
2023-04-25T21:06:57.783Z,17.10
2023-04-25T21:09:27.536Z,17.63
2023-04-25T21:11:58.102Z,16.48
2023-04-25T21:14:30.835Z,17.00
2023-04-25T21:17:01.146Z,17.05
2023-04-25T21:19:30.884Z,16.65
2023-04-25T21:22:00.914Z,17.10
2023-04-25T21:24:32.586Z,17.23
2023-04-25T21:27:02.897Z,17.35
2023-04-25T21:29:33.228Z,17.17
2023-04-25T21:32:03.641Z,15.27
2023-04-25T21:34:33.349Z,16.77
2023-04-25T21:37:03.146Z,17.15
2023-04-25T21:39:33.068Z,16.45
2023-04-25T21:42:03.294Z,16.38
2023-04-25T21:44:34.417Z,16.38
2023-04-25T21:47:06.049Z,15.60
2023-04-25T21:49:35.970Z,16.02
2023-04-25T21:52:05.771Z,16.98
2023-04-25T21:54:37.943Z,16.65
2023-04-25T21:57:07.820Z,16.02
2023-04-25T21:59:37.433Z,16.63
2023-04-25T22:02:07.530Z,16.92
2023-04-25T22:04:37.894Z,16.58
2023-04-25T22:07:08.061Z,14.82
2023-04-25T22:09:47.392Z,16.27
2023-04-25T22:12:21.725Z,15.43
2023-04-25T22:14:52.376Z,16.30
2023-04-25T22:17:27.206Z,16.88
2023-04-25T22:19:57.211Z,16.30
2023-04-25T22:22:26.985Z,17.27
2023-04-25T22:24:56.928Z,17.08
2023-04-25T22:27:26.530Z,16.85
2023-04-25T22:29:56.617Z,17.63
2023-04-25T22:32:26.324Z,16.75
2023-04-25T22:34:56.101Z,17.48
2023-04-25T22:37:26.032Z,18.05
2023-04-25T22:39:56.253Z,18.45
2023-04-25T22:42:26.144Z,17.58
2023-04-25T22:44:55.937Z,17.60
2023-04-25T22:47:26.145Z,17.13
2023-04-25T22:49:56.117Z,17.17
2023-04-25T22:52:25.773Z,18.05
2023-04-25T22:54:57.258Z,18.95
2023-04-25T22:57:27.251Z,18.42
2023-04-25T22:59:58.814Z,18.30
2023-04-25T23:02:29.014Z,18.15
2023-04-25T23:04:58.791Z,18.80
2023-04-25T23:07:30.272Z,17.70
2023-04-25T23:10:00.601Z,18.48
2023-04-25T23:12:30.256Z,17.80
2023-04-25T23:15:00.202Z,19.77
2023-04-25T23:17:30.669Z,20.00
2023-04-25T23:20:00.862Z,20.60
2023-04-25T23:22:31.058Z,20.65
2023-04-25T23:25:01.502Z,19.55
2023-04-25T23:27:31.589Z,19.48
2023-04-25T23:30:01.452Z,24.75
2023-04-25T23:32:31.344Z,22.95
2023-04-25T23:35:01.928Z,28.90
2023-04-25T23:37:32.718Z,25.55
2023-04-25T23:40:02.668Z,25.08
2023-04-25T23:42:34.596Z,26.00
2023-04-25T23:45:09.786Z,24.70
2023-04-25T23:47:39.898Z,21.02
2023-04-25T23:50:10.791Z,23.38
2023-04-25T23:52:41.283Z,21.13
2023-04-25T23:55:12.204Z,20.48
2023-04-25T23:57:45.687Z,24.55
